Time,TemperatureF,DewpointF,PressureIn,WindDirection,WindDirectionDegrees,WindSpeedMPH,WindSpeedGustMPH,Humidity,HourlyPrecipIn,Conditions,Clouds,dailyrainin,SolarRadiationWatts/m^2,SoftwareType,DateUTC
2013-03-07 00:22:00,42.0,30.0,-100.00,NNW,329,0.0,9.0,63,0.00,,,0.00,0.000000,,2013-03-07 08:22:00,
2013-03-07 00:32:00,42.0,30.0,-100.00,NNW,329,0.0,9.0,63,0.00,,,0.00,0.000000,,2013-03-07 08:32:00,
2013-03-07 00:43:00,42.0,30.0,-100.00,NNW,329,0.0,9.0,63,0.00,,,0.00,0.000000,,2013-03-07 08:43:00,
2013-03-07 00:52:00,42.0,30.0,-100.00,NNW,329,0.0,9.0,63,0.00,,,0.00,0.000000,,2013-03-07 08:52:00,
2013-03-07 01:22:00,41.0,31.0,-100.00,North,359,2.0,7.0,66,0.00,,,0.00,0.000000,,2013-03-07 09:22:00,
2013-03-07 01:32:00,41.0,31.0,-100.00,North,359,2.0,7.0,66,0.00,,,0.00,0.000000,,2013-03-07 09:32:00,
2013-03-07 01:42:00,41.0,31.0,-100.00,North,359,2.0,7.0,66,0.00,,,0.00,0.000000,,2013-03-07 09:42:00,
2013-03-07 01:52:00,41.0,31.0,-100.00,North,359,2.0,7.0,66,0.00,,,0.00,0.000000,,2013-03-07 09:52:00,
2013-03-07 02:22:00,40.0,30.0,-100.00,North,7,7.0,10.0,67,0.00,,,0.00,0.000000,,2013-03-07 10:22:00,
2013-03-07 02:32:00,40.0,30.0,-100.00,North,7,7.0,10.0,67,0.00,,,0.00,0.000000,,2013-03-07 10:32:00,
2013-03-07 02:42:00,40.0,30.0,-100.00,North,7,7.0,10.0,67,0.00,,,0.00,0.000000,,2013-03-07 10:42:00,
2013-03-07 02:51:00,40.0,30.0,-100.00,North,7,7.0,10.0,67,0.00,,,0.00,0.000000,,2013-03-07 10:51:00,
2013-03-07 03:22:00,40.0,29.0,-100.00,North,10,9.0,13.0,64,0.00,,,0.00,0.000000,,2013-03-07 11:22:00,
2013-03-07 03:33:00,40.0,29.0,-100.00,North,10,9.0,13.0,64,0.00,,,0.00,0.000000,,2013-03-07 11:33:00,
2013-03-07 03:42:00,40.0,29.0,-100.00,North,10,9.0,13.0,64,0.00,,,0.00,0.000000,,2013-03-07 11:42:00,
2013-03-07 03:52:00,40.0,29.0,-100.00,North,10,9.0,13.0,64,0.00,,,0.00,0.000000,,2013-03-07 11:52:00,
2013-03-07 04:22:00,40.0,27.0,-100.00,North,4,5.0,15.0,60,0.00,,,0.00,0.000000,,2013-03-07 12:22:00,
2013-03-07 04:33:00,40.0,27.0,-100.00,North,4,5.0,15.0,60,0.00,,,0.00,0.000000,,2013-03-07 12:33:00,
2013-03-07 04:42:00,40.0,27.0,-100.00,North,4,5.0,15.0,60,0.00,,,0.00,0.000000,,2013-03-07 12:42:00,
2013-03-07 04:52:00,40.0,27.0,-100.00,North,4,5.0,15.0,60,0.00,,,0.00,0.000000,,2013-03-07 12:52:00,
2013-03-07 05:22:00,41.0,29.0,-100.00,ENE,74,2.0,10.0,62,0.00,,,0.00,0.000000,,2013-03-07 13:22:00,
2013-03-07 05:32:00,41.0,29.0,-100.00,ENE,74,2.0,10.0,62,0.00,,,0.00,0.000000,,2013-03-07 13:32:00,
2013-03-07 05:42:00,41.0,29.0,-100.00,ENE,74,2.0,10.0,62,0.00,,,0.00,0.000000,,2013-03-07 13:42:00,
2013-03-07 05:52:00,41.0,29.0,-100.00,ENE,74,2.0,10.0,62,0.00,,,0.00,0.000000,,2013-03-07 13:52:00,
2013-03-07 06:22:00,39.0,27.0,-100.00,North,8,1.0,4.0,63,0.00,,,0.00,0.000000,,2013-03-07 14:22:00,
2013-03-07 06:32:00,39.0,27.0,-100.00,North,8,1.0,4.0,63,0.00,,,0.00,0.000000,,2013-03-07 14:32:00,
2013-03-07 06:42:00,39.0,27.0,-100.00,North,8,1.0,4.0,63,0.00,,,0.00,0.000000,,2013-03-07 14:42:00,
2013-03-07 06:52:00,39.0,27.0,-100.00,North,8,1.0,4.0,63,0.00,,,0.00,0.000000,,2013-03-07 14:52:00,
2013-03-07 07:22:00,39.0,28.0,-100.00,North,10,9.0,11.0,65,0.00,,,-99.99,11.000000,,2013-03-07 15:22:00,
2013-03-07 07:32:00,39.0,28.0,-100.00,North,10,9.0,11.0,65,0.00,,,-99.99,11.000000,,2013-03-07 15:32:00,
2013-03-07 07:42:00,39.0,28.0,-100.00,North,10,9.0,11.0,65,0.00,,,-99.99,11.000000,,2013-03-07 15:42:00,
2013-03-07 07:52:00,39.0,28.0,-100.00,North,10,9.0,11.0,65,0.00,,,-99.99,11.000000,,2013-03-07 15:52:00,
2013-03-07 08:22:00,46.0,29.0,-100.00,North,356,0.0,11.0,52,0.00,,,0.00,170.000000,,2013-03-07 16:22:00,
2013-03-07 08:32:00,46.0,29.0,-100.00,North,356,0.0,11.0,52,0.00,,,0.00,170.000000,,2013-03-07 16:32:00,
2013-03-07 08:42:00,46.0,29.0,-100.00,North,356,0.0,11.0,52,0.00,,,0.00,170.000000,,2013-03-07 16:42:00,
2013-03-07 08:52:00,46.0,29.0,-100.00,North,356,0.0,11.0,52,0.00,,,0.00,170.000000,,2013-03-07 16:52:00,
2013-03-07 09:22:00,52.0,37.0,-100.00,SSW,198,4.0,8.0,56,0.00,,,0.00,395.000000,,2013-03-07 17:22:00,
2013-03-07 09:32:00,52.0,37.0,-100.00,SSW,198,4.0,8.0,56,0.00,,,0.00,395.000000,,2013-03-07 17:32:00,
2013-03-07 09:42:00,52.0,37.0,-100.00,SSW,198,4.0,8.0,56,0.00,,,0.00,395.000000,,2013-03-07 17:42:00,
2013-03-07 09:52:00,52.0,37.0,-100.00,SSW,198,4.0,8.0,56,0.00,,,0.00,395.000000,,2013-03-07 17:52:00,
2013-03-07 10:21:00,51.0,35.0,-100.00,SSE,162,8.0,13.0,54,0.00,,,0.00,520.000000,,2013-03-07 18:21:00,
2013-03-07 10:32:00,51.0,35.0,-100.00,SSE,162,8.0,13.0,54,0.00,,,0.00,520.000000,,2013-03-07 18:32:00,
2013-03-07 10:42:00,51.0,35.0,-100.00,SSE,162,8.0,13.0,54,0.00,,,0.00,520.000000,,2013-03-07 18:42:00,
2013-03-07 10:51:00,51.0,35.0,-100.00,SSE,162,8.0,13.0,54,0.00,,,0.00,520.000000,,2013-03-07 18:51:00,
2013-03-07 11:22:00,51.0,31.0,-100.00,SSE,167,8.0,15.0,47,0.00,,,0.00,537.000000,,2013-03-07 19:22:00,
2013-03-07 11:33:00,51.0,31.0,-100.00,SSE,167,8.0,15.0,47,0.00,,,0.00,537.000000,,2013-03-07 19:33:00,
2013-03-07 11:43:00,51.0,31.0,-100.00,SSE,167,8.0,15.0,47,0.00,,,0.00,537.000000,,2013-03-07 19:43:00,
2013-03-07 11:52:00,51.0,31.0,-100.00,SSE,167,8.0,15.0,47,0.00,,,0.00,537.000000,,2013-03-07 19:52:00,
2013-03-07 12:22:00,52.0,32.0,-100.00,South,177,11.0,17.0,46,0.00,,,0.00,557.000000,,2013-03-07 20:22:00,
2013-03-07 12:32:00,52.0,32.0,-100.00,South,177,11.0,17.0,46,0.00,,,0.00,557.000000,,2013-03-07 20:32:00,
2013-03-07 12:42:00,52.0,32.0,-100.00,South,177,11.0,17.0,46,0.00,,,0.00,557.000000,,2013-03-07 20:42:00,
2013-03-07 12:52:00,52.0,32.0,-100.00,South,177,11.0,17.0,46,0.00,,,0.00,557.000000,,2013-03-07 20:52:00,
2013-03-07 13:22:00,55.0,32.0,-100.00,South,170,10.0,18.0,41,0.00,,,0.00,735.000000,,2013-03-07 21:22:00,
2013-03-07 13:32:00,55.0,32.0,-100.00,South,170,10.0,18.0,41,0.00,,,0.00,735.000000,,2013-03-07 21:32:00,
2013-03-07 13:42:00,55.0,32.0,-100.00,South,170,10.0,18.0,41,0.00,,,0.00,735.000000,,2013-03-07 21:42:00,
2013-03-07 13:52:00,55.0,32.0,-100.00,South,170,10.0,18.0,41,0.00,,,0.00,735.000000,,2013-03-07 21:52:00,
2013-03-07 14:22:00,56.0,30.0,-100.00,SSE,153,10.0,15.0,37,0.00,,,0.00,417.000000,,2013-03-07 22:22:00,
2013-03-07 14:32:00,56.0,30.0,-100.00,SSE,153,10.0,15.0,37,0.00,,,0.00,417.000000,,2013-03-07 22:32:00,
2013-03-07 14:52:00,56.0,30.0,-100.00,SSE,153,10.0,15.0,37,0.00,,,0.00,417.000000,,2013-03-07 22:52:00,
2013-03-07 15:22:00,53.0,26.0,-100.00,South,186,12.0,20.0,35,0.00,,,0.00,340.000000,,2013-03-07 23:22:00,
2013-03-07 15:32:00,53.0,26.0,-100.00,South,186,12.0,20.0,35,0.00,,,0.00,340.000000,,2013-03-07 23:32:00,
2013-03-07 15:42:00,53.0,26.0,-100.00,South,186,12.0,20.0,35,0.00,,,0.00,340.000000,,2013-03-07 23:42:00,
2013-03-07 15:52:00,53.0,26.0,-100.00,South,186,12.0,20.0,35,0.00,,,0.00,340.000000,,2013-03-07 23:52:00,
2013-03-07 16:22:00,53.0,29.0,-100.00,South,174,15.0,20.0,39,0.00,,,0.00,284.000000,,2013-03-08 00:22:00,
2013-03-07 16:33:00,53.0,29.0,-100.00,South,174,15.0,20.0,39,0.00,,,0.00,284.000000,,2013-03-08 00:33:00,
2013-03-07 16:43:00,53.0,29.0,-100.00,South,174,15.0,20.0,39,0.00,,,0.00,284.000000,,2013-03-08 00:43:00,
2013-03-07 16:52:00,53.0,29.0,-100.00,South,174,15.0,20.0,39,0.00,,,0.00,284.000000,,2013-03-08 00:52:00,
2013-03-07 17:21:00,52.0,31.0,-100.00,SSE,166,15.0,22.0,44,0.00,,,0.00,174.000000,,2013-03-08 01:21:00,
2013-03-07 17:32:00,52.0,31.0,-100.00,SSE,166,15.0,22.0,44,0.00,,,0.00,174.000000,,2013-03-08 01:32:00,
2013-03-07 17:42:00,52.0,31.0,-100.00,SSE,166,15.0,22.0,44,0.00,,,0.00,174.000000,,2013-03-08 01:42:00,
2013-03-07 17:51:00,52.0,31.0,-100.00,SSE,166,15.0,22.0,44,0.00,,,0.00,174.000000,,2013-03-08 01:51:00,
2013-03-07 18:21:00,51.0,33.0,-100.00,East,88,7.0,24.0,49,0.00,,,0.00,49.000000,,2013-03-08 02:21:00,
2013-03-07 18:31:00,51.0,33.0,-100.00,East,88,7.0,24.0,49,0.00,,,0.00,49.000000,,2013-03-08 02:31:00,
2013-03-07 18:41:00,51.0,33.0,-100.00,East,88,7.0,24.0,49,0.00,,,0.00,49.000000,,2013-03-08 02:41:00,
2013-03-07 18:52:00,51.0,33.0,-100.00,East,88,7.0,24.0,49,0.00,,,0.00,49.000000,,2013-03-08 02:52:00,
2013-03-07 19:22:00,50.0,32.0,-100.00,WNW,284,0.0,26.0,49,0.00,,,0.00,0.000000,,2013-03-08 03:22:00,
2013-03-07 19:32:00,50.0,32.0,-100.00,WNW,284,0.0,26.0,49,0.00,,,0.00,0.000000,,2013-03-08 03:32:00,
2013-03-07 19:42:00,50.0,32.0,-100.00,WNW,284,0.0,26.0,49,0.00,,,0.00,0.000000,,2013-03-08 03:42:00,
2013-03-07 19:52:00,50.0,32.0,-100.00,WNW,284,0.0,26.0,49,0.00,,,0.00,0.000000,,2013-03-08 03:52:00,
2013-03-07 20:21:00,50.0,30.0,-100.00,SSE,158,13.0,17.0,46,0.00,,,0.00,0.000000,,2013-03-08 04:21:00,
2013-03-07 20:32:00,50.0,30.0,-100.00,SSE,158,13.0,17.0,46,0.00,,,0.00,0.000000,,2013-03-08 04:32:00,
2013-03-07 20:42:00,50.0,30.0,-100.00,SSE,158,13.0,17.0,46,0.00,,,0.00,0.000000,,2013-03-08 04:42:00,
2013-03-07 20:51:00,50.0,30.0,-100.00,SSE,158,13.0,17.0,46,0.00,,,0.00,0.000000,,2013-03-08 04:51:00,
2013-03-07 21:22:00,47.0,31.0,-100.00,South,175,10.0,15.0,53,0.00,,,0.00,0.000000,,2013-03-08 05:22:00,
2013-03-07 21:32:00,47.0,31.0,-100.00,South,175,10.0,15.0,53,0.00,,,0.00,0.000000,,2013-03-08 05:32:00,
2013-03-07 21:42:00,47.0,31.0,-100.00,South,175,10.0,15.0,53,0.00,,,0.00,0.000000,,2013-03-08 05:42:00,
2013-03-07 21:52:00,47.0,31.0,-100.00,South,175,10.0,15.0,53,0.00,,,0.00,0.000000,,2013-03-08 05:52:00,
2013-03-07 22:21:00,46.0,32.0,-100.00,SSE,150,6.0,11.0,57,0.00,,,0.00,0.000000,,2013-03-08 06:21:00,
2013-03-07 22:32:00,46.0,32.0,-100.00,SSE,150,6.0,11.0,57,0.00,,,0.00,0.000000,,2013-03-08 06:32:00,
2013-03-07 22:42:00,46.0,32.0,-100.00,SSE,150,6.0,11.0,57,0.00,,,0.00,0.000000,,2013-03-08 06:42:00,
2013-03-07 22:51:00,46.0,32.0,-100.00,SSE,150,6.0,11.0,57,0.00,,,0.00,0.000000,,2013-03-08 06:51:00,
2013-03-07 23:21:00,46.0,32.0,-100.00,South,170,5.0,11.0,59,0.00,,,0.00,0.000000,,2013-03-08 07:21:00,
2013-03-07 23:31:00,46.0,32.0,-100.00,South,170,5.0,11.0,59,0.00,,,0.00,0.000000,,2013-03-08 07:31:00,
2013-03-07 23:41:00,46.0,32.0,-100.00,South,170,5.0,11.0,59,0.00,,,0.00,0.000000,,2013-03-08 07:41:00,
2013-03-07 23:51:00,46.0,32.0,-100.00,South,170,5.0,11.0,59,0.00,,,0.00,0.000000,,2013-03-08 07:51:00,